Time;durP1;ratioP1;P1;durP2;ratioP2;P2;SDS_P1;SDS_P2;PMS_P1;PMS_P2;Temp;Humidity;BMP_temperature;BMP_pressure;BME280_temperature;BME280_humidity;BME280_pressure;Samples;Min_cycle;Max_cycle;Signal;HPM_P1;HPM_P2
2022/03/27 00:00:03;;;;;;;1.33;1.20;;;;;15.90;103110.00;;;;4971806;28;20218;-75
2022/03/27 00:02:30;;;;;;;2.28;1.52;;;;;16.00;103104.00;;;;4970300;28;20227;-75
2022/03/27 00:04:58;;;;;;;2.00;1.45;;;;;16.00;103111.00;;;;4966711;28;20213;-74
2022/03/27 00:07:25;;;;;;;1.65;1.30;;;;;16.00;103105.00;;;;4965808;28;20206;-75
2022/03/27 00:09:53;;;;;;;2.65;1.50;;;;;16.00;103108.00;;;;4986099;28;21130;-75
2022/03/27 00:12:22;;;;;;;2.90;1.80;;;;;16.00;103103.00;;;;4970717;28;20832;-75
2022/03/27 00:14:49;;;;;;;2.97;1.80;;;;;16.00;103108.00;;;;4965068;28;20226;-76
2022/03/27 00:17:18;;;;;;;2.42;1.52;;;;;16.00;103102.00;;;;4965097;28;20202;-76
2022/03/27 00:19:45;;;;;;;2.08;1.63;;;;;16.00;103109.00;;;;4965903;28;20321;-78
2022/03/27 00:22:13;;;;;;;2.42;1.75;;;;;16.00;103104.00;;;;4971164;28;20206;-76
2022/03/27 00:24:41;;;;;;;2.60;1.95;;;;;16.00;103096.00;;;;4976745;28;20209;-76
2022/03/27 00:27:08;;;;;;;2.50;1.58;;;;;16.00;103105.00;;;;4980259;28;20240;-77
2022/03/27 00:29:37;;;;;;;3.22;2.20;;;;;16.00;103115.00;;;;4979143;28;20229;-77
2022/03/27 00:32:11;;;;;;;3.00;2.50;;;;;16.00;103108.00;;;;4974032;28;20587;-77
2022/03/27 00:34:38;;;;;;;2.95;2.45;;;;;16.00;103107.00;;;;4971957;28;20230;-75
2022/03/27 00:37:06;;;;;;;2.88;2.58;;;;;16.00;103105.00;;;;4970626;28;20486;-75
2022/03/27 00:39:33;;;;;;;2.90;2.25;;;;;16.00;103103.00;;;;4982970;28;20202;-75
2022/03/27 00:42:00;;;;;;;2.80;2.10;;;;;16.00;103112.00;;;;4969941;28;20219;-75
2022/03/27 00:44:28;;;;;;;3.80;2.60;;;;;16.00;103103.00;;;;4969628;28;20209;-75
2022/03/27 00:46:57;;;;;;;3.33;2.38;;;;;15.90;103105.00;;;;4969865;28;20205;-75
2022/03/27 00:49:24;;;;;;;3.25;2.78;;;;;16.00;103102.00;;;;4969122;28;20224;-75
2022/03/27 00:51:51;;;;;;;2.70;2.50;;;;;16.00;103098.00;;;;4969905;28;20591;-74
2022/03/27 00:54:19;;;;;;;3.30;2.92;;;;;16.00;103097.00;;;;4968252;28;20201;-75
2022/03/27 00:56:46;;;;;;;4.55;2.53;;;;;16.00;103098.00;;;;4976219;28;20225;-75
2022/03/27 00:59:14;;;;;;;3.80;2.95;;;;;16.00;103094.00;;;;4969066;28;20195;-75
2022/03/27 01:01:42;;;;;;;3.95;2.72;;;;;16.00;103102.00;;;;4969589;28;20225;-75
2022/03/27 01:04:11;;;;;;;3.40;2.60;;;;;16.00;103096.00;;;;4971166;28;20261;-75
2022/03/27 01:06:41;;;;;;;3.58;2.95;;;;;16.00;103086.00;;;;4970910;28;20202;-75
2022/03/27 01:12:06;;;;;;;3.78;3.13;;;;;16.10;103098.00;;;;4981815;28;20217;-75
2022/03/27 01:14:34;;;;;;;3.90;3.15;;;;;16.10;103103.00;;;;4972441;28;20207;-75
2022/03/27 01:17:07;;;;;;;3.97;3.20;;;;;16.10;103103.00;;;;4955684;28;20206;-75
2022/03/27 01:19:39;;;;;;;3.05;2.60;;;;;16.10;103099.00;;;;4952690;28;20199;-75
2022/03/27 01:22:08;;;;;;;3.45;2.60;;;;;16.10;103086.00;;;;4959643;28;20206;-75
2022/03/27 01:24:35;;;;;;;3.65;2.80;;;;;16.10;103096.00;;;;4954784;28;20222;-75
2022/03/27 01:27:03;;;;;;;3.40;2.72;;;;;16.10;103095.00;;;;4952235;29;20210;-76
2022/03/27 01:29:30;;;;;;;3.22;2.75;;;;;16.10;103089.00;;;;4953433;28;20214;-75
2022/03/27 01:31:58;;;;;;;4.40;3.20;;;;;16.00;103086.00;;;;4953154;28;20211;-75
2022/03/27 01:34:29;;;;;;;2.70;2.40;;;;;16.00;103088.00;;;;4955498;28;20199;-75
2022/03/27 01:36:56;;;;;;;3.42;3.03;;;;;16.00;103089.00;;;;4955633;29;20226;-75
2022/03/27 01:39:25;;;;;;;3.13;2.78;;;;;16.00;103088.00;;;;4954414;28;20258;-75
2022/03/27 01:41:52;;;;;;;3.60;2.75;;;;;16.00;103086.00;;;;4949662;28;20207;-76
2022/03/27 01:44:21;;;;;;;3.92;3.00;;;;;16.00;103087.00;;;;4943780;28;20207;-75
2022/03/27 01:46:48;;;;;;;2.50;2.17;;;;;16.00;103077.00;;;;4951600;29;20289;-75
2022/03/27 01:49:19;;;;;;;3.85;2.47;;;;;15.90;103083.00;;;;4957413;28;20245;-76
2022/03/27 01:51:47;;;;;;;4.15;3.22;;;;;15.90;103084.00;;;;4966915;28;20198;-75
2022/03/27 01:54:15;;;;;;;3.25;2.40;;;;;15.90;103085.00;;;;4966910;28;20210;-75
2022/03/27 01:56:44;;;;;;;4.18;2.83;;;;;15.80;103076.00;;;;4940028;28;20227;-76
2022/03/27 01:59:11;;;;;;;4.03;3.15;;;;;15.80;103080.00;;;;4951458;28;20214;-77
2022/03/27 02:01:39;;;;;;;2.95;2.47;;;;;15.80;103095.00;;;;4957290;28;20205;-77
2022/03/27 02:04:07;;;;;;;3.60;2.75;;;;;15.80;103088.00;;;;4961049;28;20206;-76
2022/03/27 02:06:37;;;;;;;2.72;2.47;;;;;15.70;103088.00;;;;4961304;28;20203;-76
2022/03/27 02:09:05;;;;;;;4.20;2.40;;;;;15.70;103087.00;;;;4960879;28;20222;-76
2022/03/27 02:11:33;;;;;;;5.35;2.97;;;;;15.70;103081.00;;;;4948285;28;20227;-75
2022/03/27 02:14:01;;;;;;;3.20;2.63;;;;;15.70;103090.00;;;;4950450;28;20199;-75
2022/03/27 02:16:29;;;;;;;4.07;3.15;;;;;15.70;103087.00;;;;4962369;28;20234;-75
2022/03/27 02:18:56;;;;;;;4.63;3.13;;;;;15.60;103086.00;;;;4987831;28;20191;-75
2022/03/27 02:21:23;;;;;;;3.72;3.10;;;;;15.60;103083.00;;;;4962546;28;20258;-75
2022/03/27 02:23:51;;;;;;;3.58;2.63;;;;;15.60;103080.00;;;;4971173;28;20198;-75
2022/03/27 02:26:19;;;;;;;3.53;2.33;;;;;15.60;103074.00;;;;4986011;28;20202;-74
2022/03/27 02:28:46;;;;;;;3.55;2.85;;;;;15.60;103083.00;;;;4972604;28;20580;-75
2022/03/27 02:31:14;;;;;;;4.30;2.67;;;;;15.50;103080.00;;;;4971074;28;20238;-75
2022/03/27 02:33:42;;;;;;;5.35;2.72;;;;;15.50;103081.00;;;;4977232;28;20237;-75
2022/03/27 02:36:09;;;;;;;3.55;3.10;;;;;15.50;103081.00;;;;4967275;28;20234;-75
2022/03/27 02:38:37;;;;;;;4.47;3.33;;;;;15.50;103083.00;;;;4988431;28;20197;-75
2022/03/27 02:41:05;;;;;;;4.22;3.15;;;;;15.50;103072.00;;;;4976691;28;20213;-75
2022/03/27 02:43:32;;;;;;;3.38;2.58;;;;;15.40;103072.00;;;;4982415;28;20207;-75
2022/03/27 02:46:00;;;;;;;4.88;3.72;;;;;15.40;103074.00;;;;4971042;28;20201;-75
2022/03/27 02:48:28;;;;;;;5.22;3.60;;;;;15.40;103072.00;;;;4971180;28;20201;-75
2022/03/27 02:50:56;;;;;;;4.68;2.92;;;;;15.30;103071.00;;;;4976919;28;20236;-75
2022/03/27 02:53:23;;;;;;;4.75;3.22;;;;;15.20;103070.00;;;;4976028;28;20217;-75
2022/03/27 02:55:50;;;;;;;4.45;3.35;;;;;15.20;103068.00;;;;4970884;28;20638;-75
2022/03/27 02:58:18;;;;;;;4.35;3.15;;;;;15.20;103065.00;;;;4971701;28;20205;-75
2022/03/27 03:00:46;;;;;;;4.70;2.88;;;;;15.20;103065.00;;;;4971880;28;20213;-75
2022/03/27 03:03:13;;;;;;;4.05;2.83;;;;;15.20;103066.00;;;;4971911;28;20602;-75
2022/03/27 03:05:43;;;;;;;3.65;3.15;;;;;15.10;103064.00;;;;4975219;28;20201;-75
2022/03/27 03:08:12;;;;;;;5.10;3.33;;;;;15.20;103072.00;;;;4990243;28;20208;-75
2022/03/27 03:10:40;;;;;;;3.25;2.83;;;;;15.10;103076.00;;;;4968682;28;20241;-75
2022/03/27 03:13:08;;;;;;;5.30;3.10;;;;;15.10;103070.00;;;;4969048;28;20274;-74
2022/03/27 03:15:36;;;;;;;4.75;3.65;;;;;15.10;103067.00;;;;4971669;28;20237;-75
2022/03/27 03:18:04;;;;;;;4.60;3.38;;;;;15.10;103069.00;;;;4972967;28;20302;-74
2022/03/27 03:20:33;;;;;;;4.38;3.20;;;;;15.10;103073.00;;;;4969593;28;20209;-75
2022/03/27 03:23:01;;;;;;;4.60;3.13;;;;;15.10;103075.00;;;;4971044;28;20265;-75
2022/03/27 03:25:30;;;;;;;4.50;3.50;;;;;15.00;103066.00;;;;4969921;28;20208;-75
2022/03/27 03:27:59;;;;;;;4.70;3.63;;;;;15.00;103061.00;;;;4962901;28;20207;-75
2022/03/27 03:30:26;;;;;;;4.38;3.38;;;;;15.00;103071.00;;;;4970426;28;20229;-75
2022/03/27 03:32:54;;;;;;;4.50;3.42;;;;;15.00;103074.00;;;;4968614;28;20198;-75
2022/03/27 03:35:21;;;;;;;5.13;3.35;;;;;15.00;103073.00;;;;4970962;28;20206;-75
2022/03/27 03:37:50;;;;;;;6.40;3.95;;;;;15.00;103076.00;;;;4970723;28;20202;-75
2022/03/27 03:40:19;;;;;;;5.63;4.13;;;;;14.90;103071.00;;;;4969483;28;20759;-75
2022/03/27 03:42:46;;;;;;;4.97;3.67;;;;;14.90;103064.00;;;;4971407;28;20296;-75
2022/03/27 03:45:14;;;;;;;5.50;3.55;;;;;14.90;103068.00;;;;4968899;28;20218;-75
2022/03/27 03:47:41;;;;;;;4.78;3.50;;;;;15.00;103067.00;;;;4966704;28;20205;-75
2022/03/27 03:50:10;;;;;;;4.38;3.50;;;;;15.00;103061.00;;;;4968812;28;20268;-75
2022/03/27 03:52:37;;;;;;;5.57;3.88;;;;;15.00;103060.00;;;;4972020;28;21743;-75
2022/03/27 03:55:08;;;;;;;5.03;3.78;;;;;15.00;103061.00;;;;4972391;28;20201;-75
2022/03/27 03:57:36;;;;;;;4.47;3.28;;;;;14.90;103060.00;;;;4972688;28;20222;-75
2022/03/27 04:00:05;;;;;;;4.75;3.75;;;;;15.00;103057.00;;;;4967305;28;20214;-75
2022/03/27 04:02:33;;;;;;;6.45;3.88;;;;;15.00;103070.00;;;;4971105;28;22135;-75
2022/03/27 04:05:01;;;;;;;4.53;3.38;;;;;15.00;103058.00;;;;4981497;28;20782;-75
2022/03/27 04:07:28;;;;;;;4.60;3.45;;;;;15.00;103065.00;;;;4970442;28;20198;-76
2022/03/27 04:09:55;;;;;;;4.95;3.70;;;;;15.00;103069.00;;;;4978528;28;20258;-76
2022/03/27 04:12:23;;;;;;;4.35;3.25;;;;;15.00;103074.00;;;;4981134;28;20245;-76
2022/03/27 04:14:51;;;;;;;6.20;3.70;;;;;14.90;103070.00;;;;4976049;28;20325;-75
2022/03/27 04:17:19;;;;;;;4.78;3.63;;;;;14.90;103070.00;;;;4981491;28;20221;-75
2022/03/27 04:19:46;;;;;;;4.72;3.42;;;;;15.00;103068.00;;;;4962863;28;20688;-75
2022/03/27 04:22:13;;;;;;;4.40;3.20;;;;;15.00;103072.00;;;;4953456;28;20199;-75
2022/03/27 04:24:40;;;;;;;5.30;3.63;;;;;14.90;103082.00;;;;4963710;28;20631;-75
2022/03/27 04:27:08;;;;;;;4.05;3.15;;;;;14.90;103076.00;;;;4965677;28;20677;-75
2022/03/27 04:29:36;;;;;;;4.47;3.25;;;;;14.90;103075.00;;;;4970410;28;20213;-75
2022/03/27 04:32:05;;;;;;;5.18;3.38;;;;;14.80;103081.00;;;;4970873;28;20194;-75
2022/03/27 04:34:34;;;;;;;4.15;3.03;;;;;14.90;103077.00;;;;4968467;28;20213;-76
2022/03/27 04:37:03;;;;;;;3.97;3.33;;;;;14.80;103080.00;;;;4966329;28;20252;-76
2022/03/27 04:39:30;;;;;;;5.20;3.97;;;;;14.80;103075.00;;;;4967243;28;20205;-76
2022/03/27 04:41:58;;;;;;;4.07;2.83;;;;;14.80;103082.00;;;;4969081;28;20198;-76
2022/03/27 04:44:25;;;;;;;4.07;2.97;;;;;14.80;103074.00;;;;4965594;28;20229;-75
2022/03/27 04:46:52;;;;;;;5.32;3.83;;;;;14.70;103066.00;;;;4962207;28;20857;-75
2022/03/27 04:49:21;;;;;;;4.82;3.30;;;;;14.70;103074.00;;;;4969491;28;20614;-76
2022/03/27 04:51:49;;;;;;;4.25;3.05;;;;;14.70;103080.00;;;;4962440;28;20208;-76
2022/03/27 04:54:16;;;;;;;4.07;2.95;;;;;14.70;103079.00;;;;4966002;28;20252;-76
2022/03/27 04:56:44;;;;;;;4.65;3.38;;;;;14.70;103080.00;;;;4967748;28;20595;-76
2022/03/27 04:59:11;;;;;;;4.55;3.05;;;;;14.60;103078.00;;;;4966081;28;20206;-75
2022/03/27 05:01:39;;;;;;;4.80;3.38;;;;;14.60;103076.00;;;;4959304;28;20843;-76
2022/03/27 05:04:06;;;;;;;4.22;3.08;;;;;14.60;103080.00;;;;4969044;28;20214;-76
2022/03/27 05:06:35;;;;;;;4.60;3.17;;;;;14.60;103075.00;;;;4968218;28;20717;-76
2022/03/27 05:09:02;;;;;;;5.20;3.38;;;;;14.60;103087.00;;;;4973558;28;20197;-76
2022/03/27 05:11:30;;;;;;;4.72;3.58;;;;;14.60;103077.00;;;;4973287;28;20221;-76
2022/03/27 05:13:58;;;;;;;4.80;3.63;;;;;14.60;103087.00;;;;4962338;28;20206;-76
2022/03/27 05:16:25;;;;;;;5.28;3.53;;;;;14.60;103076.00;;;;4965838;28;20303;-76
2022/03/27 05:18:53;;;;;;;6.32;3.80;;;;;14.60;103080.00;;;;4970358;28;20269;-75
2022/03/27 05:21:20;;;;;;;5.75;4.00;;;;;14.60;103075.00;;;;4978924;28;20201;-76
2022/03/27 05:23:49;;;;;;;6.65;4.35;;;;;14.50;103081.00;;;;4981790;28;20288;-76
2022/03/27 05:26:17;;;;;;;7.20;3.70;;;;;14.60;103083.00;;;;4964557;28;20609;-76
2022/03/27 05:28:44;;;;;;;5.47;3.88;;;;;14.60;103076.00;;;;4969390;28;20199;-76
2022/03/27 05:31:12;;;;;;;6.25;3.50;;;;;14.60;103074.00;;;;4967651;28;20224;-76
2022/03/27 05:33:40;;;;;;;4.78;3.63;;;;;14.60;103080.00;;;;4964244;28;20862;-76
2022/03/27 05:36:08;;;;;;;4.72;3.65;;;;;14.60;103079.00;;;;4970242;28;20690;-76
2022/03/27 05:38:37;;;;;;;4.93;3.70;;;;;14.60;103084.00;;;;4965817;28;20206;-76
2022/03/27 05:41:06;;;;;;;5.35;3.80;;;;;14.50;103087.00;;;;4966437;28;20198;-76
2022/03/27 05:43:33;;;;;;;5.28;3.55;;;;;14.50;103085.00;;;;4962496;28;20201;-76
2022/03/27 05:46:01;;;;;;;6.22;4.15;;;;;14.50;103083.00;;;;4967585;28;20208;-76
2022/03/27 05:48:28;;;;;;;4.28;3.45;;;;;14.50;103083.00;;;;4968208;28;20653;-76
2022/03/27 05:50:55;;;;;;;5.35;3.80;;;;;14.50;103090.00;;;;4971986;28;20205;-76
2022/03/27 05:53:23;;;;;;;5.88;4.13;;;;;14.50;103086.00;;;;4966573;28;20201;-76
2022/03/27 05:55:50;;;;;;;5.65;3.53;;;;;14.50;103087.00;;;;4968496;28;20653;-76
2022/03/27 05:58:19;;;;;;;5.40;4.05;;;;;14.50;103084.00;;;;4971464;28;20229;-76
2022/03/27 06:00:46;;;;;;;4.07;3.35;;;;;14.50;103086.00;;;;4967790;28;20961;-76
2022/03/27 06:03:13;;;;;;;5.10;3.78;;;;;14.50;103091.00;;;;4974027;28;20201;-76
2022/03/27 06:05:41;;;;;;;5.78;3.90;;;;;14.50;103094.00;;;;4983100;28;20237;-76
2022/03/27 06:08:08;;;;;;;5.38;3.70;;;;;14.50;103101.00;;;;4975477;28;20949;-76
2022/03/27 06:10:38;;;;;;;5.60;4.20;;;;;14.50;103093.00;;;;4971769;28;20206;-76
2022/03/27 06:13:06;;;;;;;6.40;4.45;;;;;14.50;103099.00;;;;4962657;28;20664;-75
2022/03/27 06:15:35;;;;;;;4.28;3.65;;;;;14.50;103097.00;;;;4965993;28;20233;-75
2022/03/27 06:18:02;;;;;;;4.50;3.33;;;;;14.50;103103.00;;;;4966009;28;20597;-75
2022/03/27 06:20:31;;;;;;;5.03;3.25;;;;;14.50;103109.00;;;;4965583;28;20289;-76
2022/03/27 06:22:59;;;;;;;5.90;3.53;;;;;14.50;103108.00;;;;4971612;28;20202;-75
2022/03/27 06:25:28;;;;;;;4.90;3.65;;;;;14.50;103103.00;;;;4975853;28;20198;-75
2022/03/27 06:27:56;;;;;;;4.65;3.90;;;;;14.50;103103.00;;;;4975163;28;20210;-76
2022/03/27 06:30:26;;;;;;;6.32;4.05;;;;;14.50;103106.00;;;;4973369;28;20194;-75
2022/03/27 06:32:55;;;;;;;4.75;3.60;;;;;14.40;103099.00;;;;4973432;28;20206;-76
2022/03/27 06:35:24;;;;;;;4.35;3.17;;;;;14.40;103105.00;;;;4972317;28;20684;-76
2022/03/27 06:37:53;;;;;;;6.25;4.45;;;;;14.40;103105.00;;;;4960136;28;20731;-76
2022/03/27 06:40:21;;;;;;;4.90;3.75;;;;;14.40;103105.00;;;;4979115;28;21315;-76
2022/03/27 06:42:49;;;;;;;4.25;3.25;;;;;14.40;103107.00;;;;4986872;28;20194;-76
2022/03/27 06:45:18;;;;;;;5.82;4.10;;;;;14.30;103104.00;;;;4971959;28;20213;-76
2022/03/27 06:47:47;;;;;;;4.70;3.67;;;;;14.30;103110.00;;;;4976758;28;20197;-76
2022/03/27 06:50:17;;;;;;;4.63;3.45;;;;;14.30;103102.00;;;;4974832;28;20596;-76
2022/03/27 06:52:47;;;;;;;4.35;3.53;;;;;14.30;103110.00;;;;4956508;28;20246;-75
2022/03/27 06:55:15;;;;;;;5.38;3.67;;;;;14.30;103103.00;;;;4966181;28;21447;-75
2022/03/27 06:57:43;;;;;;;4.85;3.55;;;;;14.30;103100.00;;;;4978363;28;20226;-75
2022/03/27 07:03:06;;;;;;;5.53;3.90;;;;;14.20;103101.00;;;;4979620;28;20587;-76
2022/03/27 07:05:37;;;;;;;4.50;3.42;;;;;14.20;103098.00;;;;4986056;28;20190;-76
2022/03/27 07:08:06;;;;;;;4.28;3.20;;;;;14.20;103094.00;;;;4965978;28;20194;-76
2022/03/27 07:10:35;;;;;;;5.20;4.13;;;;;14.20;103105.00;;;;4978730;28;20290;-75
2022/03/27 07:13:03;;;;;;;5.25;3.40;;;;;14.20;103103.00;;;;4973225;28;20209;-76
2022/03/27 07:15:30;;;;;;;4.85;3.47;;;;;14.20;103099.00;;;;4987829;28;20222;-76
2022/03/27 07:17:59;;;;;;;4.43;3.17;;;;;14.20;103106.00;;;;4975984;28;20241;-75
2022/03/27 07:20:28;;;;;;;4.20;3.13;;;;;14.20;103097.00;;;;4971850;28;20258;-75
2022/03/27 07:22:58;;;;;;;4.22;3.50;;;;;14.20;103098.00;;;;4972454;28;20210;-75
2022/03/27 07:25:28;;;;;;;6.35;3.30;;;;;14.20;103099.00;;;;4972168;28;20202;-76
2022/03/27 07:27:57;;;;;;;4.90;3.38;;;;;14.20;103098.00;;;;4975316;28;20207;-75
2022/03/27 07:30:24;;;;;;;5.30;3.80;;;;;14.20;103096.00;;;;4971828;28;20202;-75
2022/03/27 07:32:53;;;;;;;5.05;3.78;;;;;14.30;103102.00;;;;4968795;28;20194;-75
2022/03/27 07:35:21;;;;;;;4.70;3.58;;;;;14.30;103108.00;;;;4976004;28;20720;-75
2022/03/27 07:37:49;;;;;;;4.57;3.33;;;;;14.30;103108.00;;;;4969348;28;20225;-75
2022/03/27 07:40:20;;;;;;;4.78;3.80;;;;;14.30;103111.00;;;;4972619;28;20198;-75
2022/03/27 07:42:50;;;;;;;4.22;3.00;;;;;14.40;103108.00;;;;4971120;28;20198;-74
2022/03/27 07:45:27;;;;;;;4.50;3.30;;;;;14.30;103108.00;;;;4971746;28;20236;-77
2022/03/27 07:47:56;;;;;;;4.07;3.17;;;;;14.50;103104.00;;;;4973087;28;20696;-76
2022/03/27 07:50:28;;;;;;;4.38;3.60;;;;;14.50;103106.00;;;;4970922;28;20199;-76
2022/03/27 07:52:56;;;;;;;4.80;3.42;;;;;14.60;103098.00;;;;4970077;28;20304;-75
2022/03/27 07:55:25;;;;;;;4.07;3.17;;;;;14.60;103099.00;;;;4971920;28;20201;-76
2022/03/27 07:57:52;;;;;;;4.57;3.28;;;;;14.70;103105.00;;;;4971517;28;20684;-75
2022/03/27 08:00:20;;;;;;;4.65;3.58;;;;;14.80;103106.00;;;;4971343;28;20202;-76
2022/03/27 08:02:47;;;;;;;4.78;3.72;;;;;14.80;103105.00;;;;4971245;28;20724;-75
2022/03/27 08:05:18;;;;;;;4.70;3.65;;;;;14.80;103114.00;;;;4977160;28;20201;-74
2022/03/27 08:07:46;;;;;;;4.13;3.15;;;;;14.90;103111.00;;;;4970826;28;20213;-75
2022/03/27 08:10:15;;;;;;;4.63;3.50;;;;;15.00;103117.00;;;;4969680;28;20194;-75
2022/03/27 08:12:44;;;;;;;4.82;3.28;;;;;15.00;103111.00;;;;4970108;28;20218;-75
2022/03/27 08:15:11;;;;;;;4.80;3.28;;;;;15.00;103113.00;;;;4979270;28;20237;-76
2022/03/27 08:17:39;;;;;;;4.80;3.38;;;;;15.10;103116.00;;;;4990384;28;20313;-75
2022/03/27 08:20:08;;;;;;;3.95;3.13;;;;;15.10;103114.00;;;;4973771;28;20214;-75
2022/03/27 08:22:35;;;;;;;5.15;3.67;;;;;15.10;103112.00;;;;4973523;28;20202;-75
2022/03/27 08:25:03;;;;;;;5.35;3.33;;;;;15.20;103108.00;;;;4970805;28;20195;-75
2022/03/27 08:27:31;;;;;;;5.03;3.67;;;;;15.20;103107.00;;;;4970278;28;20289;-75
2022/03/27 08:30:01;;;;;;;4.65;3.13;;;;;15.30;103114.00;;;;4968834;28;20201;-75
2022/03/27 08:32:28;;;;;;;5.93;3.70;;;;;15.40;103115.00;;;;4966892;28;20198;-74
2022/03/27 08:34:55;;;;;;;4.32;3.25;;;;;15.40;103117.00;;;;4969251;28;20202;-75
2022/03/27 08:37:23;;;;;;;4.82;2.85;;;;;15.50;103112.00;;;;4952943;28;20230;-75
2022/03/27 08:39:53;;;;;;;4.95;3.42;;;;;15.50;103110.00;;;;4972995;28;20205;-76
2022/03/27 08:42:20;;;;;;;4.38;3.15;;;;;15.60;103105.00;;;;4969384;28;20199;-75
2022/03/27 08:44:48;;;;;;;4.47;3.75;;;;;15.60;103100.00;;;;4967112;28;20253;-74
2022/03/27 08:47:26;;;;;;;5.05;3.53;;;;;15.60;103106.00;;;;4968169;28;20205;-74
2022/03/27 08:50:03;;;;;;;4.22;2.90;;;;;15.70;103107.00;;;;4960640;28;20201;-75
2022/03/27 08:52:42;;;;;;;4.13;2.78;;;;;15.70;103111.00;;;;4967899;28;20640;-74
2022/03/27 08:55:17;;;;;;;5.13;3.10;;;;;15.80;103108.00;;;;4968281;28;20201;-75
2022/03/27 08:57:58;;;;;;;4.30;2.97;;;;;15.80;103108.00;;;;4971102;28;20230;-74
2022/03/27 09:00:29;;;;;;;5.00;3.00;;;;;16.00;103110.00;;;;4969282;28;20289;-74
2022/03/27 09:02:59;;;;;;;4.82;3.38;;;;;16.10;103100.00;;;;4968719;28;20293;-74
2022/03/27 09:05:27;;;;;;;3.80;3.10;;;;;16.20;103110.00;;;;4969544;28;20198;-75
2022/03/27 09:07:55;;;;;;;5.25;3.55;;;;;16.20;103112.00;;;;4969006;28;20205;-74
2022/03/27 09:10:25;;;;;;;5.32;3.22;;;;;16.30;103104.00;;;;4964220;28;20202;-74
2022/03/27 09:12:54;;;;;;;6.22;3.40;;;;;16.40;103107.00;;;;4969951;28;20194;-74
2022/03/27 09:15:23;;;;;;;4.18;3.15;;;;;16.50;103100.00;;;;4968153;28;20365;-75
2022/03/27 09:18:13;;;;;;;4.32;3.15;;;;;16.40;103101.00;;;;4968703;28;20228;-74
2022/03/27 09:20:44;;;;;;;4.30;3.03;;;;;16.60;103095.00;;;;4962555;28;20205;-75
2022/03/27 09:23:21;;;;;;;4.85;3.40;;;;;16.60;103103.00;;;;4965540;28;20197;-76
2022/03/27 09:25:51;;;;;;;5.30;3.33;;;;;16.80;103096.00;;;;4960959;28;20206;-76
2022/03/27 09:28:31;;;;;;;4.20;3.08;;;;;16.80;103094.00;;;;4966809;28;20198;-76
2022/03/27 09:31:00;;;;;;;3.70;2.85;;;;;17.00;103086.00;;;;4976606;28;20261;-77
2022/03/27 09:33:34;;;;;;;4.32;3.20;;;;;17.00;103090.00;;;;4974481;28;20198;-76
2022/03/27 09:36:09;;;;;;;3.97;2.80;;;;;17.10;103092.00;;;;4969635;28;20257;-76
2022/03/27 09:38:37;;;;;;;4.07;2.92;;;;;17.20;103089.00;;;;4969772;28;20221;-76
2022/03/27 09:41:05;;;;;;;4.47;3.17;;;;;17.30;103088.00;;;;4969835;28;20205;-75
2022/03/27 09:43:33;;;;;;;4.95;3.80;;;;;17.50;103092.00;;;;4969594;28;20633;-75
2022/03/27 09:46:02;;;;;;;4.80;3.53;;;;;17.60;103088.00;;;;4969730;28;20194;-76
2022/03/27 09:48:31;;;;;;;4.57;3.50;;;;;17.70;103085.00;;;;4974303;28;20696;-75
2022/03/27 09:51:01;;;;;;;4.03;3.15;;;;;17.80;103083.00;;;;4964991;28;20210;-75
2022/03/27 09:53:30;;;;;;;4.55;3.20;;;;;17.90;103088.00;;;;4971620;28;20565;-75
2022/03/27 09:56:15;;;;;;;5.15;3.70;;;;;17.90;103075.00;;;;4973183;28;20201;-75
2022/03/27 09:58:44;;;;;;;4.18;3.47;;;;;18.10;103079.00;;;;4971979;28;20222;-75
2022/03/27 10:01:13;;;;;;;5.10;3.92;;;;;18.20;103071.00;;;;4973190;28;20207;-75
2022/03/27 10:04:01;;;;;;;5.00;3.80;;;;;18.20;103079.00;;;;4973079;28;20517;-75
2022/03/27 10:06:32;;;;;;;5.63;3.30;;;;;18.40;103068.00;;;;4973740;28;20657;-75
2022/03/27 10:09:00;;;;;;;4.93;3.90;;;;;18.50;103075.00;;;;4970730;28;20198;-74
2022/03/27 10:11:28;;;;;;;3.83;3.22;;;;;18.60;103077.00;;;;4969578;28;21413;-74
2022/03/27 10:13:56;;;;;;;4.43;3.05;;;;;18.70;103072.00;;;;4972725;28;20206;-74
2022/03/27 10:16:29;;;;;;;3.63;3.00;;;;;18.70;103072.00;;;;4969580;28;20230;-74
2022/03/27 10:18:58;;;;;;;7.07;3.70;;;;;18.90;103068.00;;;;4959474;28;20309;-74
2022/03/27 10:21:27;;;;;;;5.05;3.50;;;;;19.00;103062.00;;;;4972635;28;20198;-74
2022/03/27 10:24:04;;;;;;;4.32;3.15;;;;;19.10;103066.00;;;;4972953;28;20571;-74
2022/03/27 10:26:33;;;;;;;5.10;3.72;;;;;19.20;103055.00;;;;4971537;28;20615;-74
2022/03/27 10:29:01;;;;;;;5.72;4.07;;;;;19.30;103058.00;;;;4970007;28;20199;-74
2022/03/27 10:31:30;;;;;;;4.80;3.60;;;;;19.40;103056.00;;;;4971011;28;20205;-74
2022/03/27 10:34:00;;;;;;;3.72;3.05;;;;;19.50;103051.00;;;;4970867;28;20379;-74
2022/03/27 10:36:40;;;;;;;3.97;3.15;;;;;19.50;103053.00;;;;4970587;28;20313;-74
2022/03/27 10:39:19;;;;;;;4.15;2.78;;;;;19.60;103047.00;;;;4983630;28;20225;-74
2022/03/27 10:41:52;;;;;;;6.85;3.40;;;;;19.80;103046.00;;;;4991065;28;20248;-74
2022/03/27 10:44:28;;;;;;;3.35;2.78;;;;;19.90;103047.00;;;;4991009;28;20686;-74
2022/03/27 10:47:21;;;;;;;4.65;3.50;;;;;19.90;103035.00;;;;4991950;28;20194;-74
2022/03/27 10:50:22;;;;;;;3.88;2.85;;;;;20.10;103043.00;;;;4973006;28;20235;-75
2022/03/27 10:53:09;;;;;;;4.65;2.85;;;;;20.10;103039.00;;;;4971455;28;20248;-74
2022/03/27 10:55:42;;;;;;;4.22;3.40;;;;;20.30;103033.00;;;;4981314;28;20220;-74
2022/03/27 10:58:32;;;;;;;4.55;2.97;;;;;20.30;103040.00;;;;4980039;28;20265;-74
2022/03/27 11:01:00;;;;;;;3.30;2.50;;;;;20.50;103035.00;;;;4968904;28;20207;-74
2022/03/27 11:03:48;;;;;;;4.47;2.25;;;;;20.50;103031.00;;;;4972230;28;20210;-74
2022/03/27 11:06:26;;;;;;;2.33;1.83;;;;;20.60;103028.00;;;;4971784;28;20209;-75
2022/03/27 11:08:55;;;;;;;3.95;2.90;;;;;20.70;103037.00;;;;4972634;28;20205;-74
2022/03/27 11:11:54;;;;;;;2.63;1.88;;;;;20.70;103023.00;;;;4971694;28;20215;-74
2022/03/27 11:14:40;;;;;;;2.55;2.20;;;;;20.80;103031.00;;;;4952472;28;20282;-74
2022/03/27 11:17:15;;;;;;;3.33;2.47;;;;;20.90;103020.00;;;;4952307;29;20668;-74
2022/03/27 11:19:46;;;;;;;3.92;2.40;;;;;21.00;103022.00;;;;4959318;28;20237;-74
2022/03/27 11:22:43;;;;;;;2.75;2.42;;;;;21.00;103021.00;;;;4971105;28;20669;-74
2022/03/27 11:25:26;;;;;;;3.92;1.80;;;;;21.10;103025.00;;;;4952906;28;20696;-75
2022/03/27 11:28:06;;;;;;;2.08;1.85;;;;;21.20;103017.00;;;;4937241;28;20214;-74
2022/03/27 11:30:35;;;;;;;2.88;2.08;;;;;21.40;103014.00;;;;4976203;28;20206;-75
2022/03/27 11:33:17;;;;;;;2.35;1.60;;;;;21.40;103008.00;;;;4962886;28;20199;-75
2022/03/27 11:36:23;;;;;;;5.55;2.00;;;;;21.50;103010.00;;;;4970745;28;20353;-74
2022/03/27 11:39:02;;;;;;;3.22;1.70;;;;;21.60;103007.00;;;;4971454;28;20233;-74
2022/03/27 11:41:34;;;;;;;2.97;1.92;;;;;21.80;102999.00;;;;4968682;28;20205;-74
2022/03/27 11:44:22;;;;;;;2.47;1.50;;;;;21.80;103000.00;;;;4962712;28;20198;-75
2022/03/27 11:46:51;;;;;;;4.57;1.50;;;;;21.90;102998.00;;;;4981698;28;20698;-75
2022/03/27 11:49:19;;;;;;;3.00;1.90;;;;;22.00;103001.00;;;;4987398;28;20207;-75
2022/03/27 11:51:47;;;;;;;2.83;1.92;;;;;22.00;102985.00;;;;4971329;28;20206;-75
2022/03/27 11:54:18;;;;;;;2.17;1.83;;;;;22.10;102989.00;;;;4970992;28;20198;-75
2022/03/27 11:56:56;;;;;;;3.45;2.00;;;;;22.10;102983.00;;;;4971282;28;20206;-75
2022/03/27 11:59:26;;;;;;;3.40;2.60;;;;;22.20;102987.00;;;;4970380;28;20236;-75
2022/03/27 12:01:54;;;;;;;3.40;1.77;;;;;22.20;102981.00;;;;4970697;28;20221;-75
2022/03/27 12:04:22;;;;;;;3.22;1.90;;;;;22.30;102984.00;;;;4982020;28;20201;-75
2022/03/27 12:06:55;;;;;;;5.10;2.47;;;;;22.30;102978.00;;;;4973452;28;20206;-75
2022/03/27 12:09:27;;;;;;;3.25;2.03;;;;;22.30;102978.00;;;;4970667;28;20210;-75
2022/03/27 12:12:10;;;;;;;4.53;2.00;;;;;22.30;102978.00;;;;4970480;28;20218;-75
2022/03/27 12:14:53;;;;;;;6.13;2.10;;;;;22.30;102974.00;;;;4970160;28;20206;-75
2022/03/27 12:17:20;;;;;;;3.20;1.55;;;;;22.50;102969.00;;;;4970559;28;20213;-75
2022/03/27 12:20:01;;;;;;;3.65;1.95;;;;;22.50;102973.00;;;;4972837;28;20237;-75
2022/03/27 12:22:36;;;;;;;2.25;1.77;;;;;22.50;102964.00;;;;4978330;28;20202;-75
2022/03/27 12:25:07;;;;;;;3.38;2.22;;;;;22.70;102963.00;;;;4970777;28;20293;-75
2022/03/27 12:30:21;;;;;;;3.97;2.20;;;;;22.70;102951.00;;;;4962705;28;20257;-75